createdAt,value
2018-02-18T00:00:30.754Z,27.97
2018-02-18T00:02:57.632Z,30.03
2018-02-18T00:05:24.404Z,28.33
2018-02-18T00:07:51.208Z,28.90
2018-02-18T00:10:17.995Z,29.47
2018-02-18T00:12:44.891Z,27.37
2018-02-18T00:15:12.435Z,28.80
2018-02-18T00:17:39.184Z,29.73
2018-02-18T00:20:05.973Z,27.97
2018-02-18T00:22:32.800Z,29.17
2018-02-18T00:24:59.638Z,31.10
2018-02-18T00:27:26.401Z,27.70
2018-02-18T00:29:53.238Z,31.57
2018-02-18T00:32:20.008Z,28.27
2018-02-18T00:34:46.758Z,32.67
2018-02-18T00:37:13.526Z,31.47
2018-02-18T00:39:40.363Z,30.17
2018-02-18T00:42:07.164Z,31.23
2018-02-18T00:44:33.916Z,28.40
2018-02-18T00:47:00.691Z,29.77
2018-02-18T00:49:27.480Z,29.03
2018-02-18T00:51:54.303Z,30.80
2018-02-18T00:54:21.067Z,27.10
2018-02-18T00:56:47.849Z,27.23
2018-02-18T00:59:14.628Z,29.87
2018-02-18T01:01:41.374Z,33.17
2018-02-18T01:04:08.218Z,30.20
2018-02-18T01:06:35.056Z,30.77
2018-02-18T01:09:02.110Z,31.20
2018-02-18T01:11:28.866Z,29.40
2018-02-18T01:13:55.629Z,32.17
2018-02-18T01:16:22.382Z,31.87
2018-02-18T01:18:49.235Z,30.30
2018-02-18T01:21:16.036Z,30.77
2018-02-18T01:23:42.787Z,30.13
2018-02-18T01:26:09.578Z,30.17
2018-02-18T01:28:36.360Z,32.47
2018-02-18T01:31:03.235Z,29.70
2018-02-18T01:33:29.971Z,28.23
2018-02-18T01:35:56.763Z,31.60
2018-02-18T01:38:23.552Z,29.17
2018-02-18T01:40:50.320Z,29.43
2018-02-18T01:43:17.110Z,26.03
2018-02-18T01:45:43.875Z,24.80
2018-02-18T01:48:10.661Z,30.80
2018-02-18T01:50:37.472Z,26.63
2018-02-18T01:53:04.291Z,24.33
2018-02-18T01:55:31.082Z,24.67
2018-02-18T01:57:57.868Z,23.50
2018-02-18T02:00:24.635Z,23.50
2018-02-18T02:02:51.406Z,23.63
2018-02-18T02:05:18.175Z,22.30
2018-02-18T02:07:44.957Z,19.13
2018-02-18T02:10:11.741Z,22.33
2018-02-18T02:12:38.616Z,20.67
2018-02-18T02:15:05.863Z,20.27
2018-02-18T02:17:32.656Z,20.77
2018-02-18T02:19:59.615Z,16.33
2018-02-18T02:22:26.370Z,17.40
2018-02-18T02:24:53.142Z,20.47
2018-02-18T02:27:19.920Z,6.57
2018-02-18T02:29:46.663Z,16.60
2018-02-18T02:32:13.431Z,21.30
2018-02-18T02:34:40.195Z,20.40
2018-02-18T02:37:07.414Z,20.27
2018-02-18T02:39:34.218Z,20.37
2018-02-18T02:42:00.964Z,17.93
2018-02-18T02:44:27.817Z,20.67
2018-02-18T02:46:54.641Z,21.50
2018-02-18T02:49:21.389Z,17.87
2018-02-18T02:51:48.147Z,18.27
2018-02-18T02:54:14.898Z,19.23
2018-02-18T02:56:41.681Z,16.77
2018-02-18T02:59:08.609Z,19.30
2018-02-18T03:01:35.447Z,17.10
2018-02-18T03:04:02.258Z,18.53
2018-02-18T03:06:29.064Z,16.90
2018-02-18T03:08:55.858Z,18.57
2018-02-18T03:11:22.639Z,16.93
2018-02-18T03:13:49.372Z,15.57
2018-02-18T03:16:16.132Z,18.07
2018-02-18T03:18:42.891Z,18.53
2018-02-18T03:21:09.675Z,15.13
2018-02-18T03:23:36.426Z,15.90
2018-02-18T03:26:03.220Z,15.90
2018-02-18T03:28:30.014Z,15.00
2018-02-18T03:30:56.788Z,15.70
2018-02-18T03:33:23.557Z,17.70
2018-02-18T03:35:50.325Z,11.70
2018-02-18T03:38:17.117Z,14.37
2018-02-18T03:40:43.935Z,14.50
2018-02-18T03:43:10.690Z,15.90
2018-02-18T03:45:37.479Z,15.27
2018-02-18T03:48:04.248Z,15.00
2018-02-18T03:50:30.990Z,17.17
2018-02-18T03:52:57.774Z,16.70
2018-02-18T03:55:24.539Z,15.97
2018-02-18T03:57:51.355Z,14.47
2018-02-18T04:00:18.098Z,13.50
2018-02-18T04:02:44.940Z,14.93
2018-02-18T04:05:11.771Z,13.20
2018-02-18T04:07:38.502Z,14.53
2018-02-18T04:10:05.289Z,13.33
2018-02-18T04:12:32.828Z,13.63
2018-02-18T04:14:59.570Z,11.67
2018-02-18T04:17:26.322Z,13.93
2018-02-18T04:19:53.140Z,13.70
2018-02-18T04:22:20.023Z,14.97
2018-02-18T04:24:46.778Z,14.10
2018-02-18T04:27:13.573Z,14.83
2018-02-18T04:29:40.345Z,16.57
2018-02-18T04:32:07.150Z,13.00
2018-02-18T04:34:33.909Z,10.50
2018-02-18T04:37:00.662Z,12.43
2018-02-18T04:39:27.415Z,15.13
2018-02-18T04:41:54.160Z,15.17
2018-02-18T04:44:20.951Z,16.57
2018-02-18T04:46:47.779Z,14.03
2018-02-18T04:49:14.531Z,14.80
2018-02-18T04:51:41.638Z,14.23
2018-02-18T04:54:08.383Z,15.33
2018-02-18T04:56:35.150Z,15.40
2018-02-18T04:59:01.930Z,15.90
2018-02-18T05:01:28.714Z,13.43
2018-02-18T05:03:55.474Z,13.57
2018-02-18T05:06:22.229Z,12.80
2018-02-18T05:08:48.975Z,13.90
2018-02-18T05:11:15.749Z,13.53
2018-02-18T05:13:42.504Z,14.87
2018-02-18T05:16:09.542Z,14.70
2018-02-18T05:18:36.305Z,15.00
2018-02-18T05:21:03.216Z,14.27
2018-02-18T05:23:30.221Z,13.83
2018-02-18T05:25:57.092Z,14.43
2018-02-18T05:28:23.861Z,14.73
2018-02-18T05:30:50.626Z,15.20
2018-02-18T05:33:17.369Z,14.43
2018-02-18T05:35:44.128Z,14.30
2018-02-18T05:38:10.874Z,12.13
2018-02-18T05:40:37.627Z,11.53
2018-02-18T05:43:04.598Z,13.60
2018-02-18T05:45:31.486Z,13.67
2018-02-18T05:47:58.268Z,12.43
2018-02-18T05:50:25.059Z,13.30
2018-02-18T05:52:51.800Z,11.70
2018-02-18T05:55:18.597Z,12.40
2018-02-18T05:57:45.363Z,13.20
2018-02-18T06:00:12.149Z,12.87
2018-02-18T06:02:38.906Z,12.07
2018-02-18T06:05:05.670Z,13.17
2018-02-18T06:07:32.452Z,15.00
2018-02-18T06:09:59.234Z,15.40
2018-02-18T06:12:26.073Z,14.80
2018-02-18T06:14:52.838Z,14.77
2018-02-18T06:17:19.648Z,14.13
2018-02-18T06:19:46.398Z,16.97
2018-02-18T06:22:13.181Z,13.13
2018-02-18T06:24:39.922Z,15.70
2018-02-18T06:27:06.706Z,16.93
2018-02-18T06:29:33.478Z,19.57
2018-02-18T06:32:00.238Z,12.27
2018-02-18T06:34:27.014Z,17.00
2018-02-18T06:36:53.774Z,18.53
2018-02-18T06:39:20.555Z,15.40
2018-02-18T06:41:47.315Z,14.13
2018-02-18T06:44:14.063Z,15.33
2018-02-18T06:46:40.822Z,10.00
2018-02-18T06:49:07.644Z,12.83
2018-02-18T06:51:34.394Z,9.67
2018-02-18T06:54:01.434Z,8.27
2018-02-18T06:56:28.195Z,12.00
2018-02-18T06:58:54.953Z,11.33
2018-02-18T07:01:21.735Z,11.43
2018-02-18T07:03:48.519Z,11.60
2018-02-18T07:06:15.358Z,10.43
2018-02-18T07:08:42.112Z,18.43
2018-02-18T07:11:09.313Z,18.40
2018-02-18T07:13:36.063Z,11.30
2018-02-18T07:16:03.146Z,18.87
2018-02-18T07:18:29.898Z,14.17
2018-02-18T07:20:56.682Z,7.87
2018-02-18T07:23:23.462Z,8.83
2018-02-18T07:25:50.286Z,12.03
2018-02-18T07:28:17.095Z,9.00
2018-02-18T07:30:43.869Z,10.17
2018-02-18T07:33:10.634Z,6.73
2018-02-18T07:35:37.440Z,17.30
2018-02-18T07:38:04.186Z,17.07
2018-02-18T07:40:30.971Z,8.80
2018-02-18T07:42:57.762Z,8.87
2018-02-18T07:45:24.543Z,5.60
2018-02-18T07:47:51.286Z,8.23
2018-02-18T07:50:18.174Z,10.17
2018-02-18T07:52:44.969Z,10.73
2018-02-18T07:55:11.725Z,10.07
2018-02-18T07:57:38.507Z,6.90
2018-02-18T08:00:05.290Z,7.77
2018-02-18T08:02:32.136Z,8.07
2018-02-18T08:04:58.906Z,9.47
2018-02-18T08:07:25.686Z,8.17
2018-02-18T08:09:52.438Z,10.27
2018-02-18T08:12:19.254Z,7.57
2018-02-18T08:14:46.030Z,7.27
2018-02-18T08:17:12.790Z,5.87
2018-02-18T08:19:39.585Z,8.63
2018-02-18T08:22:06.690Z,7.47
2018-02-18T08:24:33.727Z,8.03
2018-02-18T08:27:00.573Z,10.57
2018-02-18T08:29:27.368Z,9.33
2018-02-18T08:31:54.274Z,11.33
2018-02-18T08:34:21.026Z,9.90
2018-02-18T08:36:47.818Z,8.70
2018-02-18T08:39:14.615Z,9.13
2018-02-18T08:41:41.393Z,9.73
2018-02-18T08:44:08.239Z,11.67
2018-02-18T08:46:35.017Z,8.50
2018-02-18T08:49:01.811Z,8.27
2018-02-18T08:51:28.551Z,6.73
2018-02-18T08:53:55.441Z,8.67
2018-02-18T08:56:22.201Z,8.50
2018-02-18T08:58:48.968Z,6.63
2018-02-18T09:01:17.051Z,8.23
2018-02-18T09:03:43.786Z,7.20
2018-02-18T09:06:10.572Z,6.90
2018-02-18T09:08:37.351Z,7.27
2018-02-18T09:11:04.443Z,6.17
2018-02-18T09:13:31.567Z,6.83
2018-02-18T09:15:58.342Z,7.53
2018-02-18T09:18:25.119Z,8.00
2018-02-18T09:20:51.902Z,8.27
2018-02-18T09:23:18.670Z,5.23
2018-02-18T09:25:45.491Z,7.33
2018-02-18T09:28:12.578Z,7.80
2018-02-18T09:30:39.352Z,5.50
2018-02-18T09:33:07.053Z,11.13
2018-02-18T09:35:34.206Z,9.17
2018-02-18T09:38:00.988Z,8.70
2018-02-18T09:40:29.727Z,10.20
2018-02-18T09:42:56.542Z,8.87
2018-02-18T09:45:23.306Z,10.07
2018-02-18T09:47:50.103Z,8.73
2018-02-18T09:50:17.411Z,9.53
2018-02-18T09:52:44.185Z,10.20
2018-02-18T09:55:11.778Z,7.47
2018-02-18T09:57:38.611Z,10.23
2018-02-18T10:00:05.438Z,9.97
2018-02-18T10:02:32.875Z,11.37
2018-02-18T10:04:59.685Z,8.97
2018-02-18T10:07:26.610Z,8.37
2018-02-18T10:09:53.430Z,10.80
2018-02-18T10:12:20.296Z,8.50
2018-02-18T10:14:47.247Z,9.10
2018-02-18T10:17:15.646Z,11.47
2018-02-18T10:19:43.673Z,10.97
2018-02-18T10:22:10.439Z,9.60
2018-02-18T10:24:37.253Z,10.03
2018-02-18T10:27:04.041Z,9.27
2018-02-18T10:29:30.938Z,11.63
2018-02-18T10:31:57.826Z,8.57
2018-02-18T10:34:24.685Z,9.30
2018-02-18T10:36:51.470Z,8.47
2018-02-18T10:39:18.315Z,9.37
2018-02-18T10:41:45.159Z,9.03
2018-02-18T10:44:11.973Z,9.67
2018-02-18T10:46:38.850Z,9.07
2018-02-18T10:49:05.690Z,11.63
2018-02-18T10:51:32.462Z,9.87
2018-02-18T10:53:59.382Z,9.53
2018-02-18T10:56:26.202Z,7.13
2018-02-18T10:58:53.010Z,10.07
2018-02-18T11:01:19.807Z,8.93
2018-02-18T11:03:47.443Z,7.60
2018-02-18T11:06:14.202Z,8.93
2018-02-18T11:08:41.036Z,8.53
2018-02-18T11:11:07.818Z,6.97
2018-02-18T11:13:34.611Z,7.63
2018-02-18T11:16:01.378Z,7.97
2018-02-18T11:18:28.162Z,8.50
2018-02-18T11:20:55.042Z,8.90
2018-02-18T11:23:21.836Z,9.33
2018-02-18T11:25:48.760Z,10.60
2018-02-18T11:28:16.614Z,8.07
2018-02-18T11:30:43.721Z,8.43
2018-02-18T11:33:11.557Z,10.03
2018-02-18T11:35:38.651Z,11.57
2018-02-18T11:38:05.421Z,9.07
2018-02-18T11:40:32.265Z,8.90
2018-02-18T11:42:59.171Z,8.90
2018-02-18T11:45:25.943Z,7.37
2018-02-18T11:47:52.723Z,8.87
2018-02-18T11:50:19.481Z,8.60
2018-02-18T11:52:46.245Z,8.80
2018-02-18T11:55:13.027Z,8.80
2018-02-18T11:57:39.970Z,10.37
2018-02-18T12:00:06.746Z,8.93
2018-02-18T12:02:33.970Z,7.60
2018-02-18T12:05:01.210Z,8.13
2018-02-18T12:07:27.986Z,7.93
2018-02-18T12:09:54.914Z,9.20
2018-02-18T12:12:22.402Z,9.70
2018-02-18T12:14:49.201Z,8.80
2018-02-18T12:17:16.415Z,8.60
2018-02-18T12:19:43.201Z,8.13
2018-02-18T12:22:09.951Z,8.90
2018-02-18T12:24:37.443Z,9.00
2018-02-18T12:27:04.236Z,8.47
2018-02-18T12:29:31.008Z,8.23
2018-02-18T12:31:57.782Z,8.83
2018-02-18T12:34:24.551Z,8.90
2018-02-18T12:36:51.390Z,6.97
2018-02-18T12:39:18.134Z,9.00
2018-02-18T12:41:45.015Z,7.87
2018-02-18T12:44:11.790Z,8.30
2018-02-18T12:46:38.543Z,9.00
2018-02-18T12:49:05.335Z,8.80
2018-02-18T12:51:32.813Z,8.10
2018-02-18T12:53:59.578Z,8.87
2018-02-18T12:56:26.321Z,8.30
2018-02-18T12:58:53.925Z,8.63
2018-02-18T13:01:20.684Z,8.87
2018-02-18T13:03:47.431Z,9.20
2018-02-18T13:06:14.253Z,8.33
2018-02-18T13:08:41.047Z,8.40
2018-02-18T13:11:08.022Z,7.77
2018-02-18T13:13:34.882Z,8.80
2018-02-18T13:16:01.677Z,8.20
2018-02-18T13:18:28.621Z,9.27
2018-02-18T13:20:56.164Z,9.00
2018-02-18T13:23:47.803Z,7.57
2018-02-18T13:26:15.689Z,7.83
2018-02-18T13:31:46.466Z,7.97
2018-02-18T13:34:14.243Z,8.03
2018-02-18T13:36:41.403Z,8.27
2018-02-18T13:39:09.185Z,8.13
2018-02-18T13:41:35.986Z,8.33
2018-02-18T13:44:02.767Z,8.20
2018-02-18T13:46:29.539Z,8.43
2018-02-18T13:48:56.336Z,9.20
2018-02-18T13:51:23.550Z,8.97
2018-02-18T13:53:50.383Z,9.03
2018-02-18T13:56:17.188Z,9.00
2018-02-18T13:58:44.868Z,8.43
2018-02-18T14:01:11.686Z,8.57
2018-02-18T14:03:38.474Z,8.03
2018-02-18T14:06:05.257Z,7.40
2018-02-18T14:08:32.292Z,8.43
2018-02-18T14:10:59.111Z,8.17
2018-02-18T14:13:25.855Z,6.93
2018-02-18T14:15:52.646Z,8.13
2018-02-18T14:18:19.424Z,8.00
2018-02-18T14:20:46.180Z,8.63
2018-02-18T14:23:13.056Z,7.77
2018-02-18T14:25:39.853Z,8.17
2018-02-18T14:28:06.660Z,7.43
2018-02-18T14:30:33.409Z,8.67
2018-02-18T14:33:00.252Z,8.80
2018-02-18T14:35:27.875Z,7.43
2018-02-18T14:37:54.687Z,8.93
2018-02-18T14:40:21.622Z,8.30
2018-02-18T14:42:54.257Z,8.47
2018-02-18T14:45:27.018Z,8.33
2018-02-18T14:48:00.389Z,7.93
2018-02-18T14:50:33.011Z,8.77
2018-02-18T14:53:05.811Z,8.90
2018-02-18T14:55:36.431Z,15.10
2018-02-18T14:58:04.123Z,10.40
2018-02-18T15:00:30.906Z,10.00
2018-02-18T15:02:57.686Z,8.43
2018-02-18T15:05:24.491Z,7.97
2018-02-18T15:07:51.285Z,8.00
2018-02-18T15:10:18.112Z,8.33
2018-02-18T15:12:44.972Z,7.17
2018-02-18T15:15:26.507Z,8.83
2018-02-18T15:18:08.627Z,7.80
2018-02-18T15:20:36.744Z,9.43
2018-02-18T15:23:06.716Z,13.17
2018-02-18T15:25:33.535Z,12.67
2018-02-18T15:28:00.296Z,14.30
2018-02-18T15:30:27.109Z,12.17
2018-02-18T15:32:53.867Z,13.50
2018-02-18T15:35:20.774Z,13.30
2018-02-18T15:37:47.594Z,13.83
2018-02-18T15:40:14.388Z,11.13
2018-02-18T15:42:41.176Z,10.90
2018-02-18T15:45:07.976Z,11.27
2018-02-18T15:47:34.881Z,10.90
2018-02-18T15:50:01.639Z,9.47
2018-02-18T15:52:29.444Z,10.00
2018-02-18T15:54:56.251Z,10.70
2018-02-18T15:57:23.043Z,10.60
2018-02-18T15:59:49.840Z,10.50
2018-02-18T16:02:16.612Z,10.27
2018-02-18T16:04:43.386Z,10.00
2018-02-18T16:07:10.139Z,10.53
2018-02-18T16:09:37.206Z,10.27
2018-02-18T16:12:03.962Z,10.50
2018-02-18T16:14:30.746Z,11.37
2018-02-18T16:16:58.550Z,10.90
2018-02-18T16:19:25.481Z,11.13
2018-02-18T16:21:52.442Z,10.50
2018-02-18T16:24:19.198Z,10.57
2018-02-18T16:26:45.950Z,11.37
2018-02-18T16:29:12.724Z,13.53
2018-02-18T16:31:39.507Z,16.67
2018-02-18T16:34:06.265Z,16.47
2018-02-18T16:36:33.030Z,14.63
2018-02-18T16:38:59.796Z,19.27
2018-02-18T16:41:26.792Z,21.30
2018-02-18T16:43:53.586Z,18.70
2018-02-18T16:46:20.357Z,18.33
2018-02-18T16:48:48.087Z,15.60
2018-02-18T16:51:14.929Z,14.23
2018-02-18T16:53:41.693Z,11.80
2018-02-18T16:56:08.476Z,11.77
2018-02-18T16:58:35.286Z,11.23
2018-02-18T17:01:02.059Z,12.17
2018-02-18T17:03:28.833Z,14.63
2018-02-18T17:05:55.618Z,15.33
2018-02-18T17:08:22.403Z,15.80
2018-02-18T17:10:49.191Z,18.03
2018-02-18T17:13:15.942Z,20.90
2018-02-18T17:15:42.914Z,21.03
2018-02-18T17:18:09.743Z,20.53
2018-02-18T17:20:36.530Z,22.97
2018-02-18T17:23:03.328Z,23.13
2018-02-18T17:25:30.139Z,26.37
2018-02-18T17:27:56.907Z,22.13
2018-02-18T17:30:23.742Z,25.77
2018-02-18T17:32:50.508Z,26.43
2018-02-18T17:35:17.266Z,27.30
2018-02-18T17:37:44.055Z,28.37
2018-02-18T17:40:10.804Z,26.27
2018-02-18T17:42:37.554Z,27.83
2018-02-18T17:45:04.339Z,32.80
2018-02-18T17:47:31.118Z,35.63
2018-02-18T17:49:57.898Z,34.53
2018-02-18T17:52:24.680Z,32.23
2018-02-18T17:54:51.484Z,35.57
2018-02-18T17:57:18.258Z,38.73
2018-02-18T17:59:45.017Z,39.23
2018-02-18T18:02:11.925Z,38.10
2018-02-18T18:04:38.699Z,37.20
2018-02-18T18:07:05.482Z,35.27
2018-02-18T18:09:32.238Z,34.73
2018-02-18T18:11:58.986Z,35.77
2018-02-18T18:14:25.777Z,36.30
2018-02-18T18:16:52.687Z,35.13
2018-02-18T18:19:19.455Z,34.73
2018-02-18T18:21:46.431Z,32.50
2018-02-18T18:24:13.202Z,32.83
2018-02-18T18:26:39.997Z,31.67
2018-02-18T18:29:06.802Z,33.47
2018-02-18T18:31:33.566Z,33.53
2018-02-18T18:34:00.345Z,32.80
2018-02-18T18:36:27.125Z,33.13
2018-02-18T18:38:53.914Z,30.00
2018-02-18T18:41:20.687Z,31.77
2018-02-18T18:43:47.476Z,30.27
2018-02-18T18:46:14.345Z,29.47
2018-02-18T18:48:41.140Z,27.33
2018-02-18T18:51:07.914Z,30.97
2018-02-18T18:53:34.688Z,29.63
2018-02-18T18:56:01.545Z,29.50
2018-02-18T18:58:28.351Z,28.43
2018-02-18T19:00:55.103Z,28.93
2018-02-18T19:03:21.920Z,32.07
2018-02-18T19:05:49.470Z,27.43
2018-02-18T19:08:19.114Z,24.30
2018-02-18T19:10:47.622Z,28.67
2018-02-18T19:13:16.476Z,32.27
2018-02-18T19:15:46.103Z,28.67
2018-02-18T19:18:12.939Z,27.33
2018-02-18T19:20:39.720Z,29.57
2018-02-18T19:23:06.535Z,28.00
2018-02-18T19:25:33.472Z,28.00
2018-02-18T19:28:00.313Z,30.13
2018-02-18T19:30:27.214Z,31.47
2018-02-18T19:32:53.995Z,34.27
2018-02-18T19:35:20.970Z,34.03
2018-02-18T19:37:47.902Z,36.13
2018-02-18T19:40:14.788Z,36.23
2018-02-18T19:42:41.823Z,36.97
2018-02-18T19:45:08.742Z,37.13
2018-02-18T19:47:35.511Z,35.80
2018-02-18T19:50:02.335Z,39.33
2018-02-18T19:52:29.097Z,35.97
2018-02-18T19:54:55.886Z,36.13
2018-02-18T19:57:22.815Z,33.67
2018-02-18T19:59:50.146Z,32.90
2018-02-18T20:02:18.444Z,30.33
2018-02-18T20:04:45.287Z,29.57
2018-02-18T20:07:13.564Z,28.10
2018-02-18T20:09:40.514Z,28.93
2018-02-18T20:12:07.298Z,27.87
2018-02-18T20:14:34.052Z,28.77
2018-02-18T20:17:00.884Z,29.80
2018-02-18T20:19:27.667Z,29.53
2018-02-18T20:21:54.443Z,30.67
2018-02-18T20:24:22.139Z,35.87
2018-02-18T20:26:48.962Z,38.40
2018-02-18T20:29:16.120Z,39.97
2018-02-18T20:31:42.994Z,41.77
2018-02-18T20:34:10.244Z,42.07
2018-02-18T20:36:37.731Z,39.93
2018-02-18T20:39:04.552Z,40.33
2018-02-18T20:41:31.356Z,36.43
2018-02-18T20:43:58.158Z,35.73
2018-02-18T20:46:24.968Z,37.00
2018-02-18T20:48:52.834Z,39.93
2018-02-18T20:51:22.164Z,36.00
2018-02-18T20:53:50.001Z,37.47
2018-02-18T20:56:16.797Z,34.30
2018-02-18T20:58:44.540Z,34.30
2018-02-18T21:01:11.406Z,31.63
2018-02-18T21:03:39.027Z,30.17
2018-02-18T21:06:07.926Z,30.10
2018-02-18T21:08:34.801Z,28.03
2018-02-18T21:11:03.692Z,26.80
2018-02-18T21:13:30.604Z,29.13
2018-02-18T21:15:57.671Z,27.87
2018-02-18T21:18:28.102Z,28.87
2018-02-18T21:20:56.752Z,28.23
2018-02-18T21:23:23.568Z,29.30
2018-02-18T21:25:51.019Z,31.30
2018-02-18T21:44:33.510Z,26.63
2018-02-18T21:47:01.013Z,29.70
2018-02-18T21:49:28.064Z,29.93
2018-02-18T21:51:55.480Z,32.93
2018-02-18T21:54:22.447Z,30.27
2018-02-18T21:56:49.396Z,34.97
2018-02-18T21:59:17.735Z,33.43
2018-02-18T22:01:44.532Z,32.67
2018-02-18T22:04:13.124Z,32.63
2018-02-18T22:06:40.011Z,33.37
2018-02-18T22:09:06.962Z,28.27
2018-02-18T22:11:33.767Z,29.23
2018-02-18T22:14:00.533Z,30.80
2018-02-18T22:16:27.918Z,28.53
2018-02-18T22:18:54.718Z,28.20
2018-02-18T22:21:21.525Z,25.17
2018-02-18T22:23:48.650Z,28.20
2018-02-18T22:26:15.545Z,28.63
2018-02-18T22:28:42.332Z,26.33
2018-02-18T22:31:09.714Z,23.83
2018-02-18T22:33:37.160Z,25.57
2018-02-18T22:36:04.282Z,27.47
2018-02-18T22:38:31.270Z,26.90
2018-02-18T22:40:58.055Z,27.30
2018-02-18T22:43:25.611Z,26.40
2018-02-18T22:45:52.398Z,26.17
2018-02-18T22:48:19.154Z,24.80
2018-02-18T22:50:45.922Z,25.63
2018-02-18T22:53:12.712Z,27.27
2018-02-18T22:58:12.499Z,24.43
2018-02-18T23:00:39.989Z,23.80
2018-02-18T23:03:19.609Z,25.73
2018-02-18T23:05:53.659Z,28.43
2018-02-18T23:08:29.365Z,26.57
2018-02-18T23:13:36.540Z,27.20
2018-02-18T23:16:03.468Z,29.10
2018-02-18T23:18:30.270Z,29.87
2018-02-18T23:20:57.272Z,29.50
2018-02-18T23:23:26.942Z,26.53
2018-02-18T23:25:57.438Z,28.13
2018-02-18T23:28:24.209Z,29.13
2018-02-18T23:30:50.984Z,29.20
2018-02-18T23:33:17.744Z,27.97
2018-02-18T23:35:44.726Z,69.70
2018-02-18T23:38:11.520Z,60.23
2018-02-18T23:40:38.279Z,40.87
2018-02-18T23:43:05.068Z,38.43
2018-02-18T23:45:31.900Z,29.57
2018-02-18T23:47:59.302Z,32.07
2018-02-18T23:50:26.089Z,28.53
2018-02-18T23:52:52.867Z,28.20
2018-02-18T23:55:19.708Z,30.40
2018-02-18T23:57:47.592Z,26.47
